Time;durP1;ratioP1;P1;durP2;ratioP2;P2;SDS_P1;SDS_P2;PMS_P1;PMS_P2;Temp;Humidity;BMP_temperature;BMP_pressure;BME280_temperature;BME280_humidity;BME280_pressure;Samples;Min_cycle;Max_cycle;Signal;HPM_P1;HPM_P2
2022/03/18 00:02:12;;;;;;;12.48;5.70;;;;;;;-4.40;43.25;102070.22;4861348;29;20064;-69
2022/03/18 00:04:37;;;;;;;17.80;7.53;;;;;;;-4.41;43.01;102077.19;4861537;29;20079;-72
2022/03/18 00:07:03;;;;;;;16.75;6.28;;;;;;;-4.46;43.48;102070.94;4861226;29;20048;-72
2022/03/18 00:09:27;;;;;;;22.20;6.68;;;;;;;-4.47;43.66;102068.28;4846769;29;20049;-68
2022/03/18 00:11:52;;;;;;;14.70;6.22;;;;;;;-4.49;43.86;102062.16;4864064;29;20040;-68
2022/03/18 00:14:19;;;;;;;15.38;6.18;;;;;;;-4.49;44.15;102057.84;4867832;29;20080;-67
2022/03/18 00:16:44;;;;;;;9.75;6.05;;;;;;;-4.49;44.25;102055.22;4863566;29;20059;-73
2022/03/18 00:19:09;;;;;;;18.02;5.97;;;;;;;-4.50;43.95;102058.66;4863557;29;20060;-72
2022/03/18 00:21:34;;;;;;;20.02;7.45;;;;;;;-4.49;44.79;102062.16;4860745;29;20052;-67
2022/03/18 00:23:59;;;;;;;18.35;6.97;;;;;;;-4.52;43.56;102059.50;4862125;29;20044;-67
2022/03/18 00:26:24;;;;;;;19.10;6.13;;;;;;;-4.53;44.60;102057.72;4865477;29;20051;-69
2022/03/18 00:28:48;;;;;;;17.75;6.05;;;;;;;-4.55;44.61;102054.19;4869523;29;20055;-69
2022/03/18 00:31:13;;;;;;;16.40;6.18;;;;;;;-4.56;44.48;102060.22;4855439;29;20044;-69
2022/03/18 00:33:38;;;;;;;11.27;5.47;;;;;;;-4.57;44.08;102061.06;4872274;29;20036;-71
2022/03/18 00:36:03;;;;;;;12.30;5.95;;;;;;;-4.57;44.42;102058.47;4870885;29;20160;-70
2022/03/18 00:38:31;;;;;;;8.63;4.43;;;;;;;-4.58;43.51;102049.78;4868877;29;20038;-70
2022/03/18 00:40:56;;;;;;;18.02;8.00;;;;;;;-4.58;44.22;102070.59;4874899;29;20051;-69
2022/03/18 00:43:21;;;;;;;16.77;5.68;;;;;;;-4.57;44.07;102058.47;4872799;29;20041;-71
2022/03/18 00:45:46;;;;;;;13.75;6.10;;;;;;;-4.59;43.24;102055.81;4867417;29;20101;-71
2022/03/18 00:53:38;;;;;;;14.93;5.07;;;;;;;-4.65;43.87;102060.88;4867544;29;20615;-71
2022/03/18 00:56:02;;;;;;;15.23;5.65;;;;;;;-4.67;44.02;102054.72;4870512;29;20444;-71
2022/03/18 00:58:27;;;;;;;9.27;4.90;;;;;;;-4.68;43.81;102062.47;4871114;29;20040;-72
2022/03/18 01:00:52;;;;;;;12.48;5.20;;;;;;;-4.70;44.10;102053.75;4862381;29;20048;-70
2022/03/18 01:03:17;;;;;;;14.10;5.82;;;;;;;-4.72;43.48;102055.41;4857307;29;20044;-68
2022/03/18 01:05:42;;;;;;;10.63;5.53;;;;;;;-4.75;44.09;102061.44;4846395;29;20060;-69
2022/03/18 01:08:07;;;;;;;8.35;5.50;;;;;;;-4.74;44.33;102059.72;4852233;29;20451;-70
2022/03/18 01:10:32;;;;;;;12.13;5.50;;;;;;;-4.79;43.53;102052.66;4849946;29;20521;-67
2022/03/18 01:12:57;;;;;;;10.30;5.38;;;;;;;-4.81;43.47;102062.13;4851123;29;20077;-72
2022/03/18 01:15:22;;;;;;;12.48;5.22;;;;;;;-4.83;43.38;102060.31;4846716;29;20068;-70
2022/03/18 01:17:46;;;;;;;15.00;5.82;;;;;;;-4.86;43.72;102066.31;4851130;29;20468;-70
2022/03/18 01:20:11;;;;;;;15.98;5.57;;;;;;;-4.87;44.37;102063.69;4848633;29;20464;-71
2022/03/18 01:22:37;;;;;;;13.88;7.20;;;;;;;-4.90;44.55;102068.78;4846433;29;20089;-69
2022/03/18 01:25:02;;;;;;;11.20;6.30;;;;;;;-4.92;44.26;102068.72;4851466;29;20136;-71
2022/03/18 01:27:27;;;;;;;11.60;5.63;;;;;;;-4.94;43.99;102070.41;4846879;29;20049;-71
2022/03/18 01:29:52;;;;;;;6.43;4.32;;;;;;;-4.94;44.71;102080.81;4850150;29;20123;-69
2022/03/18 01:32:17;;;;;;;12.93;5.53;;;;;;;-4.96;45.22;102082.47;4847264;29;20040;-67
2022/03/18 01:34:42;;;;;;;16.23;6.18;;;;;;;-4.96;44.96;102081.59;4849448;29;20068;-70
2022/03/18 01:37:06;;;;;;;11.40;5.35;;;;;;;-4.97;45.30;102098.06;4846961;29;20036;-71
2022/03/18 01:39:31;;;;;;;11.25;5.70;;;;;;;-4.99;45.63;102092.81;4852152;29;20049;-68
2022/03/18 01:41:56;;;;;;;11.20;4.95;;;;;;;-5.00;45.47;102085.84;4847763;29;20037;-69
2022/03/18 01:44:20;;;;;;;10.25;5.38;;;;;;;-5.00;45.65;102088.44;4846653;29;20044;-69
2022/03/18 01:46:46;;;;;;;17.50;5.28;;;;;;;-4.99;45.46;102091.91;4848824;29;20112;-69
2022/03/18 01:49:11;;;;;;;11.25;4.53;;;;;;;-4.99;45.18;102090.19;4846920;29;20037;-70
2022/03/18 01:51:35;;;;;;;12.98;5.32;;;;;;;-4.97;45.42;102092.84;4847810;29;20044;-67
2022/03/18 01:56:44;;;;;;;18.25;6.05;;;;;;;-4.94;44.87;102088.59;4841730;29;20048;-67
2022/03/18 01:59:13;;;;;;;10.57;5.22;;;;;;;-4.92;45.27;102086.94;4845935;29;20501;-68
2022/03/18 02:01:38;;;;;;;13.60;5.30;;;;;;;-4.94;45.19;102087.72;4845945;29;20041;-67
2022/03/18 02:04:02;;;;;;;8.60;4.90;;;;;;;-4.96;45.64;102084.19;4850764;29;20048;-68
2022/03/18 02:06:27;;;;;;;11.57;6.30;;;;;;;-4.97;45.37;102085.94;4858731;29;20130;-69
2022/03/18 02:08:52;;;;;;;13.40;4.50;;;;;;;-5.00;44.92;102095.34;4864960;29;20853;-66
2022/03/18 02:11:16;;;;;;;13.00;4.88;;;;;;;-5.03;45.10;102093.53;4845395;29;20045;-66
2022/03/18 02:13:41;;;;;;;19.10;5.68;;;;;;;-5.07;46.26;102096.84;4857827;29;20530;-65
2022/03/18 02:16:06;;;;;;;11.63;5.63;;;;;;;-5.09;46.49;102098.56;4846697;29;20089;-66
2022/03/18 02:18:31;;;;;;;13.65;5.80;;;;;;;-5.13;46.22;102094.97;4846060;29;20104;-64
2022/03/18 02:20:55;;;;;;;19.77;5.20;;;;;;;-5.16;46.16;102093.97;4845422;29;20096;-62
2022/03/18 02:23:21;;;;;;;7.70;5.28;;;;;;;-5.18;46.30;102095.66;4847343;29;20060;-66
2022/03/18 02:25:47;;;;;;;11.77;5.38;;;;;;;-5.19;45.92;102102.56;4854307;29;20045;-62
2022/03/18 02:28:12;;;;;;;12.80;5.60;;;;;;;-5.21;45.60;102101.66;4835937;29;20056;-64
2022/03/18 02:30:37;;;;;;;12.40;5.60;;;;;;;-5.21;46.01;102095.56;4856625;29;20052;-65
2022/03/18 02:33:02;;;;;;;17.73;5.30;;;;;;;-5.20;45.94;102097.34;4854689;29;20053;-65
2022/03/18 02:35:28;;;;;;;14.60;6.20;;;;;;;-5.20;46.74;102102.53;4848364;29;20045;-62
2022/03/18 02:37:53;;;;;;;9.75;5.68;;;;;;;-5.21;46.11;102098.16;4845624;29;20049;-65
2022/03/18 02:40:18;;;;;;;10.23;5.93;;;;;;;-5.20;46.79;102105.13;4844880;29;20049;-64
2022/03/18 02:42:44;;;;;;;9.20;5.63;;;;;;;-5.21;47.28;102105.97;4853104;29;20397;-64
2022/03/18 02:45:10;;;;;;;12.35;5.22;;;;;;;-5.21;46.15;102106.84;4844957;29;20087;-67
2022/03/18 02:47:34;;;;;;;13.43;5.65;;;;;;;-5.23;46.56;102103.31;4862125;29;20069;-63
2022/03/18 02:49:59;;;;;;;13.02;5.20;;;;;;;-5.23;46.47;102103.31;4859225;29;20477;-63
2022/03/18 02:52:24;;;;;;;14.95;5.82;;;;;;;-5.24;46.36;102100.66;4844773;29;20056;-65
2022/03/18 02:54:49;;;;;;;10.13;5.10;;;;;;;-5.26;46.34;102112.72;4851956;29;20539;-65
2022/03/18 02:57:14;;;;;;;11.27;6.07;;;;;;;-5.27;46.62;102117.03;4861216;29;20048;-63
2022/03/18 02:59:39;;;;;;;17.83;6.35;;;;;;;-5.26;47.88;102107.53;4861796;29;20044;-62
2022/03/18 03:02:04;;;;;;;8.13;4.68;;;;;;;-5.27;47.00;102113.56;4844912;29;20044;-67
2022/03/18 03:04:28;;;;;;;15.95;6.18;;;;;;;-5.28;46.63;102098.78;4843209;29;20069;-66
2022/03/18 03:09:36;;;;;;;7.88;4.68;;;;;;;-5.30;46.01;102100.44;4844312;29;20453;-68
2022/03/18 03:12:02;;;;;;;8.45;4.93;;;;;;;-5.31;46.31;102098.72;4843420;29;20409;-65
2022/03/18 03:14:27;;;;;;;8.23;6.15;;;;;;;-5.32;45.35;102096.94;4844057;29;20044;-70
2022/03/18 03:16:52;;;;;;;10.40;4.72;;;;;;;-5.33;45.35;102110.78;4842768;29;20080;-67
2022/03/18 03:19:17;;;;;;;9.35;4.68;;;;;;;-5.33;45.26;102109.06;4854353;29;20040;-66
2022/03/18 03:21:42;;;;;;;11.07;5.68;;;;;;;-5.36;46.19;102116.75;4858683;29;20049;-67
2022/03/18 03:24:06;;;;;;;14.40;6.47;;;;;;;-5.36;46.28;102114.16;4853688;29;20040;-64
2022/03/18 03:26:31;;;;;;;12.70;6.57;;;;;;;-5.38;46.13;102114.94;4844924;29;20141;-64
2022/03/18 03:28:56;;;;;;;11.23;4.93;;;;;;;-5.41;45.20;102117.41;4845148;29;20151;-64
2022/03/18 03:31:21;;;;;;;8.88;4.78;;;;;;;-5.43;46.00;102122.59;4843316;29;20052;-64
2022/03/18 03:33:46;;;;;;;11.20;4.93;;;;;;;-5.43;45.48;102130.41;4860304;29;20172;-65
2022/03/18 03:36:11;;;;;;;7.15;4.95;;;;;;;-5.44;45.92;102114.75;4861419;29;20046;-65
2022/03/18 03:38:36;;;;;;;11.02;6.03;;;;;;;-5.46;45.28;102140.69;4862465;29;20044;-65
2022/03/18 03:41:02;;;;;;;13.48;5.57;;;;;;;-5.47;45.31;102115.53;4856056;29;20040;-65
2022/03/18 03:43:27;;;;;;;11.43;4.50;;;;;;;-5.45;46.14;102119.06;4861655;29;20044;-65
2022/03/18 03:45:52;;;;;;;9.27;4.43;;;;;;;-5.43;44.85;102121.72;4861624;29;20049;-65
2022/03/18 03:48:17;;;;;;;11.10;5.65;;;;;;;-5.44;45.37;102119.94;4847442;29;20041;-65
2022/03/18 03:50:41;;;;;;;8.35;4.85;;;;;;;-5.42;45.52;102120.88;4827961;29;20048;-66
2022/03/18 03:53:08;;;;;;;7.22;4.50;;;;;;;-5.37;45.46;102112.38;4848149;29;20127;-65
2022/03/18 03:55:38;;;;;;;9.70;4.07;;;;;;;-5.34;44.46;102112.50;4843611;29;20407;-66
2022/03/18 03:58:02;;;;;;;26.67;6.32;;;;;;;-5.23;43.83;102123.22;4842514;29;20048;-67
2022/03/18 04:00:27;;;;;;;10.00;5.65;;;;;;;-5.15;43.80;102107.03;4826806;29;20048;-65
2022/03/18 04:02:52;;;;;;;12.60;5.70;;;;;;;-5.00;43.58;102114.44;4843259;29;20041;-66
2022/03/18 04:05:17;;;;;;;6.45;4.65;;;;;;;-4.78;43.02;102113.38;4842776;29;20419;-66
2022/03/18 04:07:44;;;;;;;9.38;5.43;;;;;;;-4.56;42.71;102122.69;4845640;29;20411;-67
2022/03/18 04:10:11;;;;;;;9.30;5.18;;;;;;;-4.35;42.02;102114.63;4855790;29;20045;-65
2022/03/18 04:12:36;;;;;;;13.07;4.85;;;;;;;-4.10;41.78;102107.56;4842962;29;20184;-67
2022/03/18 04:15:02;;;;;;;11.13;6.00;;;;;;;-3.80;41.27;102103.97;4859839;29;20188;-65
2022/03/18 04:17:43;;;;;;;11.35;5.45;;;;;;;-3.47;40.11;102111.78;4845205;29;20051;-65
2022/03/18 04:20:12;;;;;;;11.65;5.20;;;;;;;-3.25;39.92;102113.19;4858085;29;20055;-66
2022/03/18 04:22:39;;;;;;;13.57;6.28;;;;;;;-3.02;39.30;102107.66;4848488;29;20060;-65
2022/03/18 04:25:04;;;;;;;13.10;6.13;;;;;;;-2.89;38.91;102106.22;4845572;29;20048;-65
2022/03/18 04:27:29;;;;;;;19.95;6.60;;;;;;;-2.71;38.53;102104.00;4855243;29;20135;-65
2022/03/18 04:29:54;;;;;;;9.80;5.47;;;;;;;-2.58;37.99;102106.03;4842930;29;20128;-65
2022/03/18 04:32:19;;;;;;;16.30;8.02;;;;;;;-2.35;37.84;102113.47;4853333;29;20072;-65
2022/03/18 04:34:44;;;;;;;15.77;5.88;;;;;;;-2.01;37.70;102102.84;4851284;29;20163;-65
2022/03/18 04:37:08;;;;;;;12.52;5.65;;;;;;;-1.76;37.17;102103.28;4846295;29;20100;-65
2022/03/18 04:39:34;;;;;;;11.75;5.47;;;;;;;-1.51;36.60;102101.13;4847081;29;20520;-65
2022/03/18 04:41:59;;;;;;;12.88;6.45;;;;;;;-1.22;36.56;102104.22;4842750;29;20045;-66
2022/03/18 04:44:23;;;;;;;14.00;6.85;;;;;;;-1.05;35.95;102104.50;4843356;29;20048;-65
2022/03/18 04:46:48;;;;;;;16.85;7.22;;;;;;;-0.83;35.34;102105.69;4853837;29;20044;-65
2022/03/18 04:49:13;;;;;;;13.00;6.47;;;;;;;-0.69;35.13;102105.88;4844317;29;20045;-65
2022/03/18 04:51:38;;;;;;;12.07;7.03;;;;;;;-0.51;34.90;102104.38;4842131;29;20604;-66
2022/03/18 04:54:02;;;;;;;13.82;7.63;;;;;;;-0.38;34.58;102110.66;4842542;29;20067;-66
2022/03/18 04:59:10;;;;;;;18.50;7.80;;;;;;;-0.02;33.41;102107.59;4845481;29;20129;-65
2022/03/18 05:01:35;;;;;;;22.83;6.82;;;;;;;0.11;33.31;102100.75;4846787;29;20126;-66
2022/03/18 05:04:00;;;;;;;15.00;7.13;;;;;;;0.18;33.08;102106.06;4842536;29;20060;-65
2022/03/18 05:06:26;;;;;;;22.50;7.38;;;;;;;0.36;32.21;102108.84;4846529;29;20045;-65
2022/03/18 05:08:50;;;;;;;20.13;7.47;;;;;;;0.62;32.41;102113.47;4848200;29;20098;-65
2022/03/18 05:11:15;;;;;;;12.00;6.82;;;;;;;0.98;31.79;102124.28;4849861;29;20566;-65
2022/03/18 05:13:40;;;;;;;16.98;6.78;;;;;;;1.28;31.47;102120.94;4849088;29;20041;-65
2022/03/18 05:16:05;;;;;;;21.85;6.38;;;;;;;1.57;31.05;102118.50;4856257;29;20069;-66
2022/03/18 05:18:30;;;;;;;15.07;7.25;;;;;;;1.83;30.58;102121.22;4856080;29;20052;-65
2022/03/18 05:20:55;;;;;;;13.73;6.18;;;;;;;2.13;30.67;102117.84;4843852;29;20087;-65
2022/03/18 05:23:20;;;;;;;22.25;8.05;;;;;;;2.32;29.90;102118.75;4843065;29;20089;-64
2022/03/18 05:25:44;;;;;;;22.45;10.25;;;;;;;2.25;29.38;102115.22;4841383;29;20505;-64
2022/03/18 05:28:09;;;;;;;20.40;7.60;;;;;;;2.24;29.76;102118.72;4841379;29;20040;-65
2022/03/18 05:30:34;;;;;;;27.25;9.30;;;;;;;2.22;29.70;102109.06;4849655;29;20075;-64
2022/03/18 05:33:00;;;;;;;19.08;8.10;;;;;;;2.48;29.35;102107.38;4863909;29;20119;-65
2022/03/18 05:35:24;;;;;;;19.48;7.95;;;;;;;2.87;29.12;102109.13;4864206;29;20488;-66
2022/03/18 05:37:49;;;;;;;20.65;7.38;;;;;;;3.33;28.44;102111.69;4859780;29;20576;-65
2022/03/18 05:40:18;;;;;;;23.67;7.30;;;;;;;3.87;27.56;102108.84;4847402;29;20059;-65
2022/03/18 05:42:42;;;;;;;26.17;8.77;;;;;;;4.40;26.97;102115.59;4849779;29;20048;-66
2022/03/18 05:45:08;;;;;;;17.92;7.13;;;;;;;5.04;26.19;102112.44;4857901;29;20055;-65
2022/03/18 05:47:32;;;;;;;14.05;8.48;;;;;;;5.65;25.13;102103.81;4844385;29;20047;-64
2022/03/18 05:50:03;;;;;;;19.48;9.25;;;;;;;6.22;24.61;102098.69;4850646;29;20049;-65
2022/03/18 05:52:28;;;;;;;23.55;8.23;;;;;;;6.77;23.56;102101.41;4863964;29;20072;-65
2022/03/18 05:54:53;;;;;;;17.65;7.97;;;;;;;7.06;23.21;102100.88;4861517;29;21250;-66
2022/03/18 05:57:18;;;;;;;25.90;8.52;;;;;;;7.24;23.11;102106.72;4863246;29;20495;-66
2022/03/18 05:59:42;;;;;;;18.73;7.85;;;;;;;7.70;22.88;102112.91;4864230;29;20044;-61
2022/03/18 06:02:08;;;;;;;21.17;8.40;;;;;;;8.14;22.82;102099.56;4862682;29;20103;-62
2022/03/18 06:04:34;;;;;;;19.92;9.30;;;;;;;8.67;22.15;102098.34;4845339;29;20514;-63
2022/03/18 06:06:59;;;;;;;23.13;7.63;;;;;;;9.19;21.15;102101.47;4854134;29;20049;-63
2022/03/18 06:12:08;;;;;;;19.08;8.90;;;;;;;10.45;20.14;102092.44;4858539;29;20050;-65
2022/03/18 06:14:33;;;;;;;19.10;8.73;;;;;;;10.95;19.84;102095.25;4851364;29;20075;-66
2022/03/18 06:17:01;;;;;;;15.88;8.30;;;;;;;11.42;19.77;102097.09;4863181;29;20045;-65
2022/03/18 06:19:27;;;;;;;25.55;8.93;;;;;;;11.86;19.29;102092.81;4863796;29;20040;-65
2022/03/18 06:21:54;;;;;;;22.63;8.50;;;;;;;12.42;18.46;102091.53;4845531;29;20057;-65
2022/03/18 06:24:20;;;;;;;18.48;7.45;;;;;;;12.94;18.17;102088.47;4851725;29;20465;-65
2022/03/18 06:26:45;;;;;;;18.20;8.32;;;;;;;13.44;17.62;102088.97;4846631;29;20043;-67
2022/03/18 06:29:10;;;;;;;15.88;7.50;;;;;;;14.02;16.99;102082.75;4844144;29;20052;-65
2022/03/18 06:31:36;;;;;;;18.33;7.60;;;;;;;14.35;16.32;102088.34;4836032;29;20045;-66
2022/03/18 06:34:02;;;;;;;18.00;9.10;;;;;;;14.64;16.66;102076.22;4856979;29;20053;-66
2022/03/18 06:36:28;;;;;;;24.35;7.95;;;;;;;15.21;15.87;102078.63;4863413;29;20044;-64
2022/03/18 06:38:53;;;;;;;19.88;8.40;;;;;;;15.83;16.05;102071.72;4864539;29;20059;-64
2022/03/18 06:41:19;;;;;;;25.90;8.25;;;;;;;16.39;15.53;102072.19;4865825;29;20040;-62
2022/03/18 06:43:43;;;;;;;13.23;6.90;;;;;;;16.92;14.97;102066.44;4861875;29;20095;-64
2022/03/18 06:46:11;;;;;;;19.88;8.38;;;;;;;17.21;14.49;102067.34;4866789;29;20056;-63
2022/03/18 06:48:35;;;;;;;15.70;8.07;;;;;;;17.49;14.57;102066.53;4865309;29;20040;-63
2022/03/18 06:51:00;;;;;;;18.88;8.43;;;;;;;17.78;14.08;102065.63;4862557;29;20103;-64
2022/03/18 06:53:25;;;;;;;17.40;8.88;;;;;;;18.04;13.91;102061.25;4862453;29;20051;-65
2022/03/18 06:55:50;;;;;;;21.08;8.70;;;;;;;18.20;13.37;102056.59;4864044;29;20048;-63
2022/03/18 06:58:15;;;;;;;17.73;8.38;;;;;;;17.76;13.36;102046.81;4863934;29;20052;-64
2022/03/18 07:00:39;;;;;;;16.85;9.00;;;;;;;18.09;13.70;102048.31;4863874;29;20521;-64
2022/03/18 07:03:05;;;;;;;16.60;8.80;;;;;;;18.39;13.83;102050.88;4862675;29;20048;-64
2022/03/18 07:05:31;;;;;;;19.45;9.43;;;;;;;18.27;13.40;102044.44;4867022;29;20165;-66
2022/03/18 07:07:56;;;;;;;14.57;7.82;;;;;;;18.41;13.21;102049.78;4871434;29;20044;-67
2022/03/18 07:10:21;;;;;;;16.17;8.52;;;;;;;18.94;13.52;102042.66;4871871;29;20060;-66
2022/03/18 07:12:47;;;;;;;14.23;8.25;;;;;;;19.31;12.71;102032.81;4872305;29;20540;-69
2022/03/18 07:15:12;;;;;;;18.40;8.48;;;;;;;19.43;12.70;102042.78;4865846;29;20555;-68
2022/03/18 07:17:55;;;;;;;13.95;7.97;;;;;;;19.64;12.50;102039.59;4861995;29;20059;-66
2022/03/18 07:20:22;;;;;;;19.13;8.23;;;;;;;20.24;12.29;102037.81;4864300;29;20055;-66
2022/03/18 07:22:47;;;;;;;14.65;7.82;;;;;;;20.62;11.85;102036.84;4864967;29;20420;-66
2022/03/18 07:25:12;;;;;;;16.20;8.23;;;;;;;20.91;11.74;102038.16;4863580;29;20044;-67
2022/03/18 07:27:37;;;;;;;11.70;7.53;;;;;;;20.79;11.55;102044.53;4865176;29;20520;-70
2022/03/18 07:30:04;;;;;;;17.73;8.93;;;;;;;20.83;11.98;102040.63;4864217;29;20052;-65
2022/03/18 07:32:28;;;;;;;17.08;8.02;;;;;;;21.45;11.36;102028.56;4864323;29;20040;-65
2022/03/18 07:34:53;;;;;;;18.83;7.95;;;;;;;21.83;11.37;102022.78;4862737;29;20048;-65
2022/03/18 07:37:18;;;;;;;13.25;7.22;;;;;;;22.06;11.20;102019.09;4865579;29;20074;-69
2022/03/18 07:39:43;;;;;;;17.95;7.28;;;;;;;22.21;11.06;102015.13;4873921;29;20048;-66
2022/03/18 07:42:07;;;;;;;12.73;6.90;;;;;;;22.59;10.58;102017.34;4873098;29;20044;-66
2022/03/18 07:44:34;;;;;;;16.35;6.75;;;;;;;22.76;10.60;102010.50;4866896;29;20095;-67
2022/03/18 07:46:59;;;;;;;13.38;7.18;;;;;;;22.91;10.53;102019.22;4864183;29;20049;-67
2022/03/18 07:49:24;;;;;;;20.77;8.40;;;;;;;23.01;10.29;102021.03;4863451;29;20066;-67
2022/03/18 07:51:49;;;;;;;9.70;6.93;;;;;;;23.06;10.25;102007.00;4863766;29;20045;-66
2022/03/18 07:54:13;;;;;;;15.13;7.40;;;;;;;23.61;10.21;102010.34;4863840;29;20475;-65
2022/03/18 07:56:38;;;;;;;12.63;7.80;;;;;;;24.30;10.11;102010.44;4864670;29;20048;-66
2022/03/18 07:59:03;;;;;;;13.95;7.47;;;;;;;24.49;9.50;102010.50;4863433;29;20068;-67
2022/03/18 08:01:29;;;;;;;13.63;7.68;;;;;;;24.94;9.28;102010.81;4865193;29;20044;-68
2022/03/18 08:03:54;;;;;;;12.93;6.80;;;;;;;25.49;9.37;102011.81;4863759;29;20092;-63
2022/03/18 08:06:20;;;;;;;10.25;7.15;;;;;;;25.77;9.27;102009.16;4863309;29;20048;-63
2022/03/18 08:08:45;;;;;;;17.20;7.53;;;;;;;25.78;8.89;102009.00;4862752;29;20048;-67
2022/03/18 08:11:10;;;;;;;14.27;7.60;;;;;;;26.06;8.68;102014.47;4861242;29;20146;-67
2022/03/18 08:13:34;;;;;;;12.35;7.75;;;;;;;25.56;8.76;102004.75;4862615;29;20055;-67
2022/03/18 08:15:59;;;;;;;14.05;7.05;;;;;;;25.70;9.15;102006.16;4862620;29;20048;-67
2022/03/18 08:18:24;;;;;;;13.57;7.10;;;;;;;25.82;8.96;102012.31;4865451;29;20512;-66
2022/03/18 08:20:50;;;;;;;11.07;7.00;;;;;;;26.25;8.92;102001.53;4872252;29;20040;-67
2022/03/18 08:23:15;;;;;;;9.82;6.30;;;;;;;26.68;8.75;101994.47;4872802;29;20065;-66
2022/03/18 08:25:41;;;;;;;12.02;7.28;;;;;;;26.51;8.50;102000.81;4870999;29;20072;-67
2022/03/18 08:28:07;;;;;;;10.10;7.53;;;;;;;26.76;8.73;101997.25;4864284;29;20048;-68
2022/03/18 08:30:32;;;;;;;12.27;7.95;;;;;;;26.62;8.69;102006.91;4862092;29;20084;-65
2022/03/18 08:32:57;;;;;;;12.82;7.40;;;;;;;27.09;8.76;101998.41;4862877;29;20049;-66
2022/03/18 08:35:21;;;;;;;11.90;6.45;;;;;;;27.24;8.27;101990.47;4847479;29;20057;-66
2022/03/18 08:37:58;;;;;;;14.68;7.10;;;;;;;26.92;8.12;101993.81;4863824;29;20588;-66
2022/03/18 08:40:34;;;;;;;12.45;6.20;;;;;;;27.80;8.17;102006.41;4861391;29;20047;-67
2022/03/18 08:43:02;;;;;;;9.85;4.97;;;;;;;28.22;8.32;102008.31;4862189;29;20812;-66
2022/03/18 08:45:28;;;;;;;11.10;6.18;;;;;;;28.81;8.17;101999.00;4862597;29;20040;-67
2022/03/18 08:47:53;;;;;;;9.73;6.20;;;;;;;29.66;7.75;101994.75;4862992;29;20563;-67
2022/03/18 08:50:20;;;;;;;10.23;5.95;;;;;;;30.40;7.44;101984.25;4862824;29;20499;-67
2022/03/18 08:52:45;;;;;;;13.93;6.32;;;;;;;30.66;7.40;101996.66;4861837;29;20056;-66
2022/03/18 08:55:11;;;;;;;8.95;6.43;;;;;;;30.78;7.08;101991.56;4862422;29;20190;-66
2022/03/18 08:57:37;;;;;;;8.25;6.15;;;;;;;31.21;6.88;101997.41;4862764;29;20115;-68
2022/03/18 09:00:05;;;;;;;20.48;6.50;;;;;;;31.27;6.98;101997.50;4861255;29;20431;-66
2022/03/18 09:02:31;;;;;;;10.65;6.20;;;;;;;31.09;6.65;101991.47;4861275;29;20052;-66
2022/03/18 09:04:56;;;;;;;14.63;5.75;;;;;;;30.96;6.88;101993.97;4862858;29;20037;-67
2022/03/18 09:07:20;;;;;;;16.10;6.05;;;;;;;30.14;6.73;101988.19;4863182;29;20056;-67
2022/03/18 09:09:45;;;;;;;10.73;6.40;;;;;;;30.82;6.73;101987.38;4862500;29;20039;-65
2022/03/18 09:12:10;;;;;;;7.35;6.07;;;;;;;31.42;6.86;101988.38;4862775;29;20091;-68
2022/03/18 09:14:35;;;;;;;9.50;5.75;;;;;;;31.96;6.81;101987.03;4862671;29;20049;-65
2022/03/18 09:17:00;;;;;;;8.40;5.80;;;;;;;32.49;6.54;102004.28;4860716;29;20127;-66
2022/03/18 09:19:25;;;;;;;6.47;5.78;;;;;;;32.65;6.36;102003.13;4862950;29;20048;-66
2022/03/18 09:21:50;;;;;;;8.40;6.45;;;;;;;32.66;6.02;101997.41;4863898;29;20060;-68
2022/03/18 09:24:15;;;;;;;12.38;6.70;;;;;;;32.13;5.91;101986.81;4861182;29;20048;-68
2022/03/18 09:26:40;;;;;;;7.32;5.70;;;;;;;32.23;6.44;101991.03;4862223;29;20143;-67
2022/03/18 09:29:05;;;;;;;15.77;6.72;;;;;;;31.72;6.07;101982.69;4862647;29;20124;-67
2022/03/18 09:31:30;;;;;;;7.05;5.57;;;;;;;31.85;6.14;101984.78;4862501;29;20060;-66
2022/03/18 09:33:54;;;;;;;8.88;5.90;;;;;;;31.83;6.15;101970.31;4862366;29;20119;-67
2022/03/18 09:36:20;;;;;;;13.27;6.00;;;;;;;32.11;6.18;101974.06;4866788;29;20111;-68
2022/03/18 09:38:46;;;;;;;11.07;6.15;;;;;;;32.11;6.06;101973.22;4879125;29;20100;-67
2022/03/18 09:41:11;;;;;;;7.28;5.43;;;;;;;31.62;6.38;101970.22;4878359;29;20052;-68
2022/03/18 09:43:38;;;;;;;7.95;5.75;;;;;;;31.16;6.19;101977.81;4870094;29;20051;-67
2022/03/18 09:46:05;;;;;;;8.38;6.13;;;;;;;30.20;6.52;101962.72;4861696;29;20555;-67
2022/03/18 09:48:30;;;;;;;7.07;5.97;;;;;;;30.05;7.02;101952.66;4860580;29;20044;-67
2022/03/18 09:50:55;;;;;;;8.43;5.82;;;;;;;30.63;6.58;101966.72;4860000;29;20048;-72
2022/03/18 09:53:20;;;;;;;8.75;6.28;;;;;;;31.14;6.23;101955.13;4860748;29;20109;-66
2022/03/18 09:55:45;;;;;;;12.23;7.10;;;;;;;30.75;6.32;101960.78;4861313;29;20048;-68
2022/03/18 09:58:11;;;;;;;10.30;6.93;;;;;;;29.66;6.62;101953.53;4860048;29;20113;-66
2022/03/18 10:00:36;;;;;;;6.78;5.65;;;;;;;29.41;6.67;101949.16;4861447;29;20127;-67
2022/03/18 10:03:10;;;;;;;11.38;6.22;;;;;;;30.54;6.70;101951.31;4861719;29;20140;-67
2022/03/18 10:05:35;;;;;;;8.50;5.93;;;;;;;30.89;6.70;101954.47;4861702;29;20052;-66
2022/03/18 10:08:00;;;;;;;8.80;6.20;;;;;;;31.38;6.47;101939.13;4861455;29;20040;-67
2022/03/18 10:10:27;;;;;;;8.07;6.20;;;;;;;31.57;6.50;101940.47;4861658;29;20115;-66
2022/03/18 10:12:55;;;;;;;9.27;6.10;;;;;;;31.54;6.14;101935.34;4861467;29;20052;-66
2022/03/18 10:15:25;;;;;;;14.05;6.13;;;;;;;30.94;6.32;101929.94;4860062;29;20142;-67
2022/03/18 10:17:55;;;;;;;8.00;5.65;;;;;;;30.34;6.80;101939.06;4845183;29;20487;-67
2022/03/18 10:20:38;;;;;;;9.45;5.90;;;;;;;30.16;6.78;101935.72;4864768;29;20504;-67
2022/03/18 10:23:05;;;;;;;7.60;5.68;;;;;;;29.16;7.06;101927.19;4864368;29;20067;-66
2022/03/18 10:25:59;;;;;;;12.38;6.38;;;;;;;26.26;7.86;101917.63;4863149;29;20059;-64
2022/03/18 10:28:40;;;;;;;10.35;5.63;;;;;;;23.78;9.17;101919.81;4863210;29;20134;-66
2022/03/18 10:31:19;;;;;;;8.48;5.43;;;;;;;20.43;10.33;101917.28;4831927;29;20049;-67
2022/03/18 10:39:57;;;;;;;10.43;6.55;;;;;;;14.64;14.77;101907.09;4854076;29;20043;-66
2022/03/18 10:42:23;;;;;;;7.50;4.90;;;;;;;13.67;15.42;101915.50;4802984;29;20057;-67
2022/03/18 10:44:56;;;;;;;9.30;5.03;;;;;;;13.03;16.13;101918.50;4823045;29;20063;-68
2022/03/18 10:47:26;;;;;;;8.20;4.82;;;;;;;12.54;16.63;101923.34;4824551;29;20084;-67
2022/03/18 10:49:50;;;;;;;6.50;4.30;;;;;;;11.92;16.59;101912.66;4816914;29;20050;-68
2022/03/18 10:52:15;;;;;;;7.75;4.45;;;;;;;11.33;17.34;101909.63;4813489;29;20104;-68
2022/03/18 10:54:40;;;;;;;9.25;4.78;;;;;;;10.89;18.00;101901.50;4806682;29;20096;-64
2022/03/18 10:57:05;;;;;;;9.68;5.15;;;;;;;10.39;18.69;101898.84;4791756;29;20533;-63
2022/03/18 10:59:31;;;;;;;10.10;4.95;;;;;;;10.17;19.16;101895.13;4791199;29;20589;-64
2022/03/18 11:01:56;;;;;;;11.57;5.93;;;;;;;10.03;19.19;101889.44;4791210;29;20141;-64
2022/03/18 11:04:23;;;;;;;13.63;4.95;;;;;;;9.83;19.23;101882.94;4806252;29;20098;-62
2022/03/18 11:12:26;;;;;;;10.65;5.05;;;;;;;9.22;19.54;101891.13;4808039;29;20506;-64
2022/03/18 11:14:56;;;;;;;9.23;5.38;;;;;;;9.02;19.90;101889.94;4811250;29;20050;-64
2022/03/18 11:17:23;;;;;;;11.23;5.25;;;;;;;8.61;20.90;101884.91;4811200;29;20497;-65
2022/03/18 11:19:47;;;;;;;12.40;5.65;;;;;;;8.53;20.32;101886.91;4850607;29;20088;-64
2022/03/18 11:22:15;;;;;;;8.75;4.97;;;;;;;8.29;21.05;101877.78;4850676;29;20088;-64
2022/03/18 11:24:39;;;;;;;9.98;5.15;;;;;;;7.88;21.52;101884.16;4847635;29;20390;-64
2022/03/18 11:27:05;;;;;;;14.48;5.70;;;;;;;7.89;21.99;101886.78;4848951;29;20142;-67
2022/03/18 11:29:31;;;;;;;8.82;4.72;;;;;;;7.94;22.01;101882.19;4848367;29;20477;-66
2022/03/18 11:32:17;;;;;;;8.27;4.93;;;;;;;8.04;21.10;101882.84;4851849;29;20545;-63
2022/03/18 11:34:46;;;;;;;5.78;4.00;;;;;;;7.99;21.36;101875.00;4848210;29;20073;-65
2022/03/18 11:37:11;;;;;;;7.78;4.80;;;;;;;7.77;21.69;101873.78;4852338;29;20044;-64
2022/03/18 11:39:35;;;;;;;7.30;4.90;;;;;;;7.54;23.04;101869.03;4849079;29;20055;-67
2022/03/18 11:42:09;;;;;;;8.43;3.88;;;;;;;7.64;22.50;101873.22;4853510;29;20461;-62
2022/03/18 11:44:44;;;;;;;6.78;4.40;;;;;;;7.55;22.53;101873.44;4844420;29;20055;-64